createdAt,value
2022-07-25T00:04:38.963Z,21.92
2022-07-25T00:09:44.339Z,21.83
2022-07-25T00:14:51.103Z,21.75
2022-07-25T00:19:58.827Z,21.66
2022-07-25T00:25:03.729Z,21.56
2022-07-25T00:30:10.052Z,21.51
2022-07-25T00:35:17.634Z,21.47
2022-07-25T00:40:22.680Z,21.40
2022-07-25T00:45:27.571Z,21.36
2022-07-25T00:50:35.115Z,21.33
2022-07-25T00:55:40.731Z,21.27
2022-07-25T01:00:45.827Z,21.30
2022-07-25T01:05:54.090Z,21.33
2022-07-25T01:10:59.098Z,21.31
2022-07-25T01:16:04.175Z,21.32
2022-07-25T01:21:11.840Z,21.30
2022-07-25T01:26:16.995Z,21.30
2022-07-25T01:31:22.295Z,21.28
2022-07-25T01:36:29.953Z,21.24
2022-07-25T01:41:35.604Z,21.22
2022-07-25T01:46:40.621Z,21.19
2022-07-25T01:51:48.193Z,21.16
2022-07-25T01:56:53.224Z,21.07
2022-07-25T02:01:58.430Z,21.02
2022-07-25T02:07:06.684Z,21.01
2022-07-25T02:12:12.464Z,20.93
2022-07-25T02:17:18.001Z,20.86
2022-07-25T02:22:25.945Z,20.81
2022-07-25T02:27:30.812Z,20.76
2022-07-25T02:32:36.020Z,20.73
2022-07-25T02:37:44.010Z,20.73
2022-07-25T02:42:49.056Z,20.73
2022-07-25T02:47:54.248Z,20.73
2022-07-25T02:53:05.393Z,20.73
2022-07-25T02:58:10.369Z,20.69
2022-07-25T03:03:15.655Z,20.62
2022-07-25T03:08:23.434Z,20.58
2022-07-25T03:13:28.629Z,20.51
2022-07-25T03:18:34.364Z,20.44
2022-07-25T03:23:41.829Z,20.40
2022-07-25T03:28:46.698Z,20.37
2022-07-25T03:33:51.729Z,20.35
2022-07-25T03:38:59.226Z,20.30
2022-07-25T03:44:04.793Z,20.26
2022-07-25T03:49:09.889Z,20.21
2022-07-25T03:54:17.479Z,20.18
2022-07-25T03:59:24.420Z,20.16
2022-07-25T04:04:29.363Z,20.11
2022-07-25T04:09:36.879Z,20.12
2022-07-25T04:14:41.922Z,20.13
2022-07-25T04:19:46.866Z,20.15
2022-07-25T04:24:54.339Z,20.18
2022-07-25T04:29:59.661Z,20.21
2022-07-25T04:35:04.624Z,20.25
2022-07-25T04:40:13.961Z,20.30
2022-07-25T04:45:18.864Z,20.35
2022-07-25T04:50:25.078Z,20.39
2022-07-25T04:55:32.706Z,20.47
2022-07-25T05:00:37.840Z,20.54
2022-07-25T05:05:43.459Z,20.60
2022-07-25T05:10:50.950Z,20.71
2022-07-25T05:15:57.902Z,20.79
2022-07-25T05:21:02.869Z,20.90
2022-07-25T05:26:10.530Z,21.02
2022-07-25T05:31:15.570Z,21.21
2022-07-25T05:36:20.567Z,21.42
2022-07-25T05:41:28.052Z,21.53
2022-07-25T05:46:35.329Z,21.68
2022-07-25T05:51:40.203Z,21.84
2022-07-25T05:56:47.801Z,21.99
2022-07-25T06:01:52.943Z,22.27
2022-07-25T06:06:58.784Z,22.49
2022-07-25T06:12:06.870Z,22.71
2022-07-25T06:17:13.203Z,23.00
2022-07-25T06:22:19.765Z,23.22
2022-07-25T06:27:29.432Z,23.43
2022-07-25T06:32:34.564Z,23.72
2022-07-25T06:37:41.131Z,23.97
2022-07-25T06:42:50.012Z,24.25
2022-07-25T06:47:55.011Z,24.53
2022-07-25T06:52:59.864Z,24.77
2022-07-25T06:58:07.706Z,25.05
2022-07-25T07:03:12.669Z,25.32
2022-07-25T07:08:17.670Z,25.55
2022-07-25T07:13:25.941Z,25.88
2022-07-25T07:18:30.835Z,26.18
2022-07-25T07:23:35.866Z,26.40
2022-07-25T07:28:44.099Z,26.69
2022-07-25T07:33:49.237Z,26.99
2022-07-25T07:38:54.402Z,27.25
2022-07-25T07:44:01.924Z,27.47
2022-07-25T07:49:07.407Z,27.79
2022-07-25T07:54:25.050Z,28.04
2022-07-25T07:59:32.600Z,28.30
2022-07-25T08:04:37.544Z,28.46
2022-07-25T08:09:42.576Z,28.77
2022-07-25T08:14:50.611Z,29.00
2022-07-25T08:20:02.021Z,29.19
2022-07-25T08:25:18.246Z,29.35
2022-07-25T08:30:28.052Z,29.52
2022-07-25T08:35:34.798Z,29.70
2022-07-25T08:40:40.263Z,29.87
2022-07-25T08:45:51.026Z,30.06
2022-07-25T08:50:57.359Z,30.18
2022-07-25T08:56:08.326Z,30.31
2022-07-25T09:01:19.428Z,30.53
2022-07-25T09:06:25.774Z,30.76
2022-07-25T09:11:33.012Z,30.99
2022-07-25T09:16:44.398Z,30.98
2022-07-25T09:22:01.907Z,31.10
2022-07-25T09:27:13.154Z,31.23
2022-07-25T09:32:23.060Z,31.29
2022-07-25T09:37:30.238Z,31.65
2022-07-25T09:42:36.579Z,31.88
2022-07-25T09:47:55.835Z,32.02
2022-07-25T09:58:43.266Z,32.19
2022-07-25T10:03:55.056Z,32.24
2022-07-25T10:09:00.832Z,32.25
2022-07-25T10:14:13.993Z,32.31
2022-07-25T10:19:38.750Z,32.36
2022-07-25T10:24:49.644Z,32.50
2022-07-25T10:29:56.690Z,32.65
2022-07-25T10:35:14.637Z,32.73
2022-07-25T10:40:29.227Z,32.87
2022-07-25T10:45:42.341Z,32.80
2022-07-25T10:50:56.871Z,32.94
2022-07-25T10:56:07.182Z,33.07
2022-07-25T11:01:14.430Z,33.15
2022-07-25T11:06:34.904Z,33.48
2022-07-25T11:11:43.298Z,33.60
2022-07-25T11:16:49.622Z,33.71
2022-07-25T11:22:01.326Z,33.63
2022-07-25T11:27:12.187Z,33.68
2022-07-25T11:32:18.581Z,33.79
2022-07-25T11:37:26.302Z,33.79
2022-07-25T11:42:42.900Z,34.02
2022-07-25T11:47:49.642Z,34.18
2022-07-25T11:53:02.329Z,34.32
2022-07-25T11:58:08.475Z,34.26
2022-07-25T12:03:19.508Z,34.28
2022-07-25T12:08:28.376Z,34.37
2022-07-25T12:13:33.904Z,34.59
2022-07-25T12:18:41.578Z,34.77
2022-07-25T12:23:49.200Z,34.70
2022-07-25T12:28:54.689Z,34.69
2022-07-25T12:33:59.742Z,34.99
2022-07-25T12:39:07.991Z,35.45
2022-07-25T12:44:13.255Z,35.38
2022-07-25T12:49:18.446Z,35.37
2022-07-25T12:54:26.079Z,35.63
2022-07-25T12:59:31.117Z,36.18
2022-07-25T13:04:36.158Z,36.19
2022-07-25T13:09:43.634Z,36.42
2022-07-25T13:14:48.574Z,36.49
2022-07-25T13:19:53.746Z,36.20
2022-07-25T13:25:01.422Z,36.22
2022-07-25T13:30:07.161Z,36.47
2022-07-25T13:35:17.704Z,36.20
2022-07-25T13:40:27.732Z,36.08
2022-07-25T13:45:32.938Z,35.86
2022-07-25T13:50:38.715Z,36.15
2022-07-25T13:55:46.477Z,35.87
2022-07-25T14:00:51.602Z,35.90
2022-07-25T14:05:56.713Z,35.97
2022-07-25T14:11:05.766Z,35.96
2022-07-25T14:16:11.312Z,35.55
2022-07-25T14:21:16.348Z,35.29
2022-07-25T14:26:24.265Z,35.16
2022-07-25T14:31:29.432Z,35.01
2022-07-25T14:36:34.570Z,34.82
2022-07-25T14:41:42.525Z,34.77
2022-07-25T14:46:49.318Z,34.58
2022-07-25T14:51:54.827Z,34.42
2022-07-25T14:57:02.695Z,34.32
2022-07-25T15:02:07.677Z,34.32
2022-07-25T15:07:12.854Z,34.41
2022-07-25T15:12:21.074Z,34.56
2022-07-25T15:17:26.104Z,34.61
2022-07-25T15:22:32.546Z,34.50
2022-07-25T15:27:40.229Z,34.41
2022-07-25T15:32:46.066Z,34.29
2022-07-25T15:37:51.100Z,34.16
2022-07-25T15:42:59.053Z,34.02
2022-07-25T15:48:04.164Z,33.83
2022-07-25T15:53:10.139Z,33.65
2022-07-25T15:58:18.430Z,33.50
2022-07-25T16:03:24.315Z,33.30
2022-07-25T16:08:29.595Z,31.48
2022-07-25T16:13:37.119Z,28.08
2022-07-25T16:18:42.152Z,26.53
2022-07-25T16:23:47.181Z,26.31
2022-07-25T16:29:05.826Z,25.99
2022-07-25T16:34:11.349Z,25.62
2022-07-25T16:39:16.224Z,25.34
2022-07-25T16:44:24.103Z,25.27
2022-07-25T16:49:29.028Z,25.27
2022-07-25T16:54:34.246Z,25.31
2022-07-25T16:59:41.958Z,25.23
2022-07-25T17:04:47.121Z,25.18
2022-07-25T17:09:52.437Z,25.05
2022-07-25T17:15:12.715Z,24.76
2022-07-25T17:20:18.739Z,24.45
2022-07-25T17:25:23.993Z,24.35
2022-07-25T17:30:37.831Z,24.26
2022-07-25T17:35:43.162Z,24.24
2022-07-25T17:40:48.307Z,24.26
2022-07-25T17:45:56.097Z,24.44
2022-07-25T17:51:01.754Z,24.58
2022-07-25T17:56:08.577Z,24.89
2022-07-25T18:01:16.986Z,25.23
2022-07-25T18:06:26.329Z,25.37
2022-07-25T18:11:34.439Z,25.38
2022-07-25T18:16:42.955Z,25.27
2022-07-25T18:21:48.233Z,25.03
2022-07-25T18:26:54.018Z,24.93
2022-07-25T18:32:01.636Z,24.86
2022-07-25T18:37:07.888Z,24.79
2022-07-25T18:42:13.113Z,24.66
2022-07-25T18:47:23.480Z,24.49
2022-07-25T18:52:34.895Z,24.43
2022-07-25T18:57:41.393Z,24.38
2022-07-25T19:08:33.849Z,24.18
2022-07-25T19:13:50.196Z,24.02
2022-07-25T19:18:56.264Z,23.90
2022-07-25T19:24:03.791Z,23.88
2022-07-25T19:29:09.501Z,23.84
2022-07-25T19:34:14.776Z,23.81
2022-07-25T19:39:22.625Z,23.83
2022-07-25T19:44:27.633Z,23.77
2022-07-25T19:49:32.890Z,23.72
2022-07-25T19:54:42.265Z,23.73
2022-07-25T19:59:47.279Z,23.68
2022-07-25T20:04:52.349Z,23.57
2022-07-25T20:10:00.290Z,23.47
2022-07-25T20:15:05.956Z,23.49
2022-07-25T20:20:12.223Z,23.47
2022-07-25T20:25:20.272Z,23.36
2022-07-25T20:30:25.462Z,23.33
2022-07-25T20:35:34.153Z,23.21
2022-07-25T20:40:49.220Z,22.56
2022-07-25T20:45:55.240Z,22.28
2022-07-25T20:51:00.993Z,22.16
2022-07-25T20:56:08.605Z,22.17
2022-07-25T21:01:16.490Z,22.38
2022-07-25T21:06:27.269Z,22.42
2022-07-25T21:11:35.712Z,22.38
2022-07-25T21:16:40.813Z,22.36
2022-07-25T21:21:46.146Z,22.32
2022-07-25T21:26:53.700Z,22.15
2022-07-25T21:31:59.284Z,22.02
2022-07-25T21:37:04.698Z,22.01
2022-07-25T21:42:12.925Z,21.93
2022-07-25T21:47:18.711Z,21.83
2022-07-25T21:52:30.384Z,21.82
2022-07-25T21:57:42.714Z,21.81
2022-07-25T22:02:49.315Z,21.76
2022-07-25T22:07:55.679Z,21.70
2022-07-25T22:13:03.663Z,21.59
2022-07-25T22:18:11.540Z,21.53
2022-07-25T22:23:16.455Z,21.54
2022-07-25T22:28:24.477Z,21.55
2022-07-25T22:33:31.254Z,21.52
2022-07-25T22:38:36.165Z,21.48
2022-07-25T22:43:59.104Z,21.44
2022-07-25T22:49:05.722Z,21.36
2022-07-25T22:54:13.478Z,21.31
2022-07-25T22:59:21.750Z,21.29
2022-07-25T23:04:27.097Z,21.25
2022-07-25T23:09:36.183Z,21.23
2022-07-25T23:14:44.331Z,21.22
2022-07-25T23:19:50.872Z,21.18
2022-07-25T23:24:55.809Z,21.16
2022-07-25T23:30:09.017Z,21.11
2022-07-25T23:35:26.070Z,21.10
2022-07-25T23:40:34.980Z,21.02
2022-07-25T23:45:45.037Z,20.89
2022-07-25T23:50:55.726Z,20.86
2022-07-25T23:56:06.039Z,20.85
